Time;durP1;ratioP1;P1;durP2;ratioP2;P2;SDS_P1;SDS_P2;PMS_P1;PMS_P2;Temp;Humidity;BMP_temperature;BMP_pressure;BME280_temperature;BME280_humidity;BME280_pressure;Samples;Min_cycle;Max_cycle;Signal;HPM_P1;HPM_P2
2022/09/01 00:01:17;;;;;;;;;;;19.10;99.90;;;;;;5051426;28;20291;-83
2022/09/01 00:03:47;;;;;;;;;;;19.10;1.00;;;;;;5051645;28;20431;-83
2022/09/01 00:06:21;;;;;;;;;;;19.10;1.00;;;;;;5052595;28;19919;-82
2022/09/01 00:08:56;;;;;;;;;;;19.10;1.00;;;;;;5051065;28;19909;-82
2022/09/01 00:11:23;;;;;;;;;;;19.00;1.00;;;;;;5052925;28;19915;-83
2022/09/01 00:13:49;;;;;;;;;;;19.00;1.00;;;;;;5051397;28;19913;-83
2022/09/01 00:16:16;;;;;;;;;;;18.90;1.00;;;;;;5052601;28;19991;-83
2022/09/01 00:18:42;;;;;;;;;;;18.90;1.00;;;;;;5051435;28;19931;-83
2022/09/01 00:21:09;;;;;;;;;;;18.90;1.00;;;;;;5052700;28;19913;-82
2022/09/01 00:23:34;;;;;;;;;;;18.90;1.00;;;;;;5051367;28;20334;-82
2022/09/01 00:25:59;;;;;;;;;;;18.90;1.00;;;;;;5052241;28;19974;-82
2022/09/01 00:28:25;;;;;;;;;;;18.90;1.00;;;;;;5051303;28;19909;-82
2022/09/01 00:30:50;;;;;;;;;;;18.80;1.00;;;;;;5051022;28;19909;-84
2022/09/01 00:33:16;;;;;;;;;;;18.80;1.00;;;;;;5051325;28;19913;-83
2022/09/01 00:35:41;;;;;;;;;;;18.80;1.00;;;;;;5052216;28;19912;-83
2022/09/01 00:38:07;;;;;;;;;;;18.80;1.00;;;;;;5052542;28;19919;-83
2022/09/01 00:40:33;;;;;;;;;;;18.90;1.00;;;;;;5052533;28;19916;-84
2022/09/01 00:42:59;;;;;;;;;;;18.90;1.00;;;;;;5051154;28;19908;-82
2022/09/01 00:45:25;;;;;;;;;;;18.90;1.00;;;;;;5051207;28;19996;-83
2022/09/01 00:47:50;;;;;;;;;;;18.90;1.00;;;;;;5052118;28;19952;-83
2022/09/01 00:50:17;;;;;;;;;;;18.90;1.00;;;;;;5050999;28;19988;-82
2022/09/01 00:52:48;;;;;;;;;;;18.80;1.00;;;;;;5051238;28;19963;-82
2022/09/01 00:55:16;;;;;;;;;;;18.80;1.00;;;;;;5051007;28;19989;-83
2022/09/01 00:57:42;;;;;;;;;;;18.80;1.00;;;;;;5051054;28;19916;-84
2022/09/01 01:00:16;;;;;;;;;;;18.80;1.00;;;;;;5052214;28;19913;-83
2022/09/01 01:02:43;;;;;;;;;;;18.70;1.00;;;;;;5051247;28;19917;-82
2022/09/01 01:05:09;;;;;;;;;;;18.70;1.00;;;;;;5050843;28;19909;-83
2022/09/01 01:07:37;;;;;;;;;;;18.60;1.00;;;;;;5052082;28;19915;-82
2022/09/01 01:10:04;;;;;;;;;;;18.60;1.00;;;;;;5052181;28;19948;-82
2022/09/01 01:12:30;;;;;;;;;;;18.60;1.00;;;;;;5052057;28;19913;-83
2022/09/01 01:14:55;;;;;;;;;;;18.60;1.00;;;;;;5050912;28;19916;-83
2022/09/01 01:17:21;;;;;;;;;;;18.60;1.00;;;;;;5052489;28;19909;-83
2022/09/01 01:23:07;;;;;;;;;;;18.60;1.00;;;;;;5055707;28;19916;-83
2022/09/01 01:25:36;;;;;;;;;;;18.50;1.00;;;;;;5054370;28;19952;-82
2022/09/01 01:28:03;;;;;;;;;;;18.40;1.00;;;;;;5055893;28;19955;-82
2022/09/01 01:30:31;;;;;;;;;;;18.30;1.00;;;;;;5054427;28;20261;-83
2022/09/01 01:32:56;;;;;;;;;;;18.30;1.00;;;;;;5055624;28;20359;-82
2022/09/01 01:35:23;;;;;;;;;;;18.30;1.00;;;;;;5054679;28;19955;-82
2022/09/01 01:37:50;;;;;;;;;;;18.20;1.00;;;;;;5055505;28;19916;-83
2022/09/01 01:40:17;;;;;;;;;;;18.20;1.00;;;;;;5054174;28;20384;-82
2022/09/01 01:42:44;;;;;;;;;;;18.10;1.00;;;;;;5054406;28;19936;-82
2022/09/01 01:45:11;;;;;;;;;;;18.00;1.00;;;;;;5055413;28;20318;-84
2022/09/01 01:47:37;;;;;;;;;;;18.00;1.00;;;;;;5055204;28;20412;-83
2022/09/01 01:50:08;;;;;;;;;;;18.00;1.00;;;;;;5054082;28;19916;-84
2022/09/01 01:52:34;;;;;;;;;;;17.90;1.00;;;;;;5054042;28;19917;-82
2022/09/01 01:55:00;;;;;;;;;;;17.90;1.00;;;;;;5054027;28;19915;-83
2022/09/01 01:57:30;;;;;;;;;;;17.90;1.00;;;;;;5053692;28;19909;-81
2022/09/01 01:59:56;;;;;;;;;;;17.90;1.00;;;;;;5053874;28;19913;-83
2022/09/01 02:02:22;;;;;;;;;;;17.90;1.00;;;;;;5055434;28;19917;-83
2022/09/01 02:04:47;;;;;;;;;;;17.90;1.00;;;;;;5053654;28;20027;-82
2022/09/01 02:07:13;;;;;;;;;;;17.90;1.00;;;;;;5053799;28;20377;-83
2022/09/01 02:09:39;;;;;;;;;;;17.80;1.00;;;;;;5053626;28;19909;-83
2022/09/01 02:12:06;;;;;;;;;;;17.80;1.00;;;;;;5055194;28;19913;-82
2022/09/01 02:14:32;;;;;;;;;;;17.70;1.00;;;;;;5055217;28;19909;-82
2022/09/01 02:16:58;;;;;;;;;;;17.70;1.00;;;;;;5053681;28;19912;-83
2022/09/01 02:19:23;;;;;;;;;;;17.70;1.00;;;;;;5053670;28;19908;-83
2022/09/01 02:21:53;;;;;;;;;;;17.60;1.00;;;;;;5053685;28;19909;-82
2022/09/01 02:24:19;;;;;;;;;;;17.60;1.00;;;;;;5053673;28;19908;-83
2022/09/01 02:26:46;;;;;;;;;;;17.50;1.00;;;;;;5053180;28;20265;-84
2022/09/01 02:29:17;;;;;;;;;;;17.60;1.00;;;;;;5053538;28;19909;-82
2022/09/01 02:31:44;;;;;;;;;;;17.60;1.00;;;;;;5053274;28;19909;-83
2022/09/01 02:34:12;;;;;;;;;;;17.50;1.00;;;;;;5054873;28;20357;-83
2022/09/01 02:36:48;;;;;;;;;;;17.60;1.00;;;;;;5053349;28;20421;-83
2022/09/01 02:39:15;;;;;;;;;;;17.60;1.00;;;;;;5053266;28;19909;-82
2022/09/01 02:41:40;;;;;;;;;;;17.60;1.00;;;;;;5053215;28;19928;-82
2022/09/01 02:44:10;;;;;;;;;;;17.70;1.00;;;;;;5053128;28;20319;-82
2022/09/01 02:46:45;;;;;;;;;;;17.70;1.00;;;;;;5052969;28;19930;-82
2022/09/01 02:49:16;;;;;;;;;;;17.70;1.00;;;;;;5053211;28;20285;-83
2022/09/01 02:51:42;;;;;;;;;;;17.70;1.00;;;;;;5054508;28;19944;-82
2022/09/01 02:54:08;;;;;;;;;;;17.70;1.00;;;;;;5053061;28;19962;-83
2022/09/01 02:56:34;;;;;;;;;;;17.70;1.00;;;;;;5052758;28;20288;-82
2022/09/01 02:59:01;;;;;;;;;;;17.70;1.00;;;;;;5053019;28;19909;-83
2022/09/01 03:01:28;;;;;;;;;;;17.70;1.00;;;;;;5052944;28;19948;-83
2022/09/01 03:03:56;;;;;;;;;;;17.60;1.00;;;;;;5053756;28;20361;-83
2022/09/01 03:06:22;;;;;;;;;;;17.60;1.00;;;;;;5052223;28;19944;-82
2022/09/01 03:08:52;;;;;;;;;;;17.60;1.00;;;;;;5052368;28;19908;-82
2022/09/01 03:11:18;;;;;;;;;;;17.70;1.00;;;;;;5052211;28;19920;-83
2022/09/01 03:13:43;;;;;;;;;;;17.70;1.00;;;;;;5052283;28;19913;-83
2022/09/01 03:16:09;;;;;;;;;;;17.70;1.00;;;;;;5052092;28;19909;-83
2022/09/01 03:18:35;;;;;;;;;;;17.70;1.00;;;;;;5052207;28;20438;-82
2022/09/01 03:21:01;;;;;;;;;;;17.70;1.00;;;;;;5052135;28;19996;-82
2022/09/01 03:23:27;;;;;;;;;;;17.70;1.00;;;;;;5053406;28;19944;-83
2022/09/01 03:25:53;;;;;;;;;;;17.70;1.00;;;;;;5051827;28;20364;-82
2022/09/01 03:28:18;;;;;;;;;;;17.60;1.00;;;;;;5053281;28;19955;-83
2022/09/01 03:30:45;;;;;;;;;;;17.60;1.00;;;;;;5051983;28;19959;-83
2022/09/01 03:33:11;;;;;;;;;;;17.60;1.00;;;;;;5051957;28;20364;-83
2022/09/01 03:35:36;;;;;;;;;;;17.50;1.00;;;;;;5051689;28;19943;-83
2022/09/01 03:38:03;;;;;;;;;;;17.60;1.00;;;;;;5051895;28;19909;-82
2022/09/01 03:40:31;;;;;;;;;;;17.50;1.00;;;;;;5052940;28;19915;-82
2022/09/01 03:42:57;;;;;;;;;;;17.60;1.00;;;;;;5051493;28;19909;-83
2022/09/01 03:45:24;;;;;;;;;;;17.50;1.00;;;;;;5051251;28;19909;-82
2022/09/01 03:47:51;;;;;;;;;;;17.40;1.00;;;;;;5052774;28;19968;-82
2022/09/01 03:50:21;;;;;;;;;;;17.40;1.00;;;;;;5052929;28;19932;-83
2022/09/01 03:52:48;;;;;;;;;;;17.40;1.00;;;;;;5051511;28;19912;-83
2022/09/01 03:55:17;;;;;;;;;;;17.40;1.00;;;;;;5051479;28;19916;-82
2022/09/01 03:57:42;;;;;;;;;;;17.40;1.00;;;;;;5052573;28;19913;-83
2022/09/01 04:00:12;;;;;;;;;;;17.30;1.00;;;;;;5051384;28;19909;-82
2022/09/01 04:02:38;;;;;;;;;;;17.30;1.00;;;;;;5051480;28;20372;-83
2022/09/01 04:05:03;;;;;;;;;;;17.20;1.00;;;;;;5051380;28;19916;-82
2022/09/01 04:07:29;;;;;;;;;;;17.20;1.00;;;;;;5051235;28;19916;-82
2022/09/01 04:09:54;;;;;;;;;;;17.20;1.00;;;;;;5051106;28;19932;-82
2022/09/01 04:12:20;;;;;;;;;;;17.20;1.00;;;;;;5052951;28;19913;-82
2022/09/01 04:14:47;;;;;;;;;;;17.10;1.00;;;;;;5051409;28;19909;-82
2022/09/01 04:19:57;;;;;;;;;;;17.10;1.00;;;;;;5052878;28;20001;-83
2022/09/01 04:22:28;;;;;;;;;;;17.00;1.00;;;;;;5051355;28;20392;-83
2022/09/01 04:24:53;;;;;;;;;;;17.00;1.00;;;;;;5051200;28;20007;-83
2022/09/01 04:27:25;;;;;;;;;;;17.00;1.00;;;;;;5051204;28;19966;-82
2022/09/01 04:29:51;;;;;;;;;;;17.00;1.00;;;;;;5051142;28;19908;-82
2022/09/01 04:32:20;;;;;;;;;;;17.00;1.00;;;;;;5052369;28;20376;-83
2022/09/01 04:34:45;;;;;;;;;;;16.90;1.00;;;;;;5053492;28;19909;-84
2022/09/01 04:37:13;;;;;;;;;;;16.90;1.00;;;;;;5053362;28;19962;-85
2022/09/01 04:39:47;;;;;;;;;;;16.90;1.00;;;;;;5053922;28;19916;-83
2022/09/01 04:42:12;;;;;;;;;;;16.80;1.00;;;;;;5051181;28;19909;-82
2022/09/01 04:44:38;;;;;;;;;;;16.70;1.00;;;;;;5052363;28;19909;-82
2022/09/01 04:47:10;;;;;;;;;;;16.70;1.00;;;;;;5052197;28;20046;-82
2022/09/01 04:49:36;;;;;;;;;;;16.60;1.00;;;;;;5051014;28;19940;-82
2022/09/01 04:52:02;;;;;;;;;;;16.60;1.00;;;;;;5052155;28;19913;-83
2022/09/01 04:54:27;;;;;;;;;;;16.60;1.00;;;;;;5051090;28;19913;-83
2022/09/01 04:56:53;;;;;;;;;;;16.60;1.00;;;;;;5054959;28;19915;-84
2022/09/01 04:59:20;;;;;;;;;;;16.60;1.00;;;;;;5054997;28;19934;-82
2022/09/01 05:01:45;;;;;;;;;;;16.60;1.00;;;;;;5054960;28;19916;-82
2022/09/01 05:04:15;;;;;;;;;;;16.60;1.00;;;;;;5056098;28;19974;-82
2022/09/01 05:06:42;;;;;;;;;;;16.60;1.00;;;;;;5055876;28;19916;-82
2022/09/01 05:09:09;;;;;;;;;;;16.60;1.00;;;;;;5055972;28;19913;-82
2022/09/01 05:11:36;;;;;;;;;;;16.60;1.00;;;;;;5054855;28;19915;-83
2022/09/01 05:14:04;;;;;;;;;;;16.60;1.00;;;;;;5054758;28;19913;-83
2022/09/01 05:16:29;;;;;;;;;;;16.60;1.00;;;;;;5067614;28;19932;-82
2022/09/01 05:18:55;;;;;;;;;;;16.70;1.00;;;;;;5055789;28;19909;-82
2022/09/01 05:21:27;;;;;;;;;;;16.70;1.00;;;;;;5055823;28;19970;-82
2022/09/01 05:23:53;;;;;;;;;;;16.70;1.00;;;;;;5054537;28;19909;-83
2022/09/01 05:26:23;;;;;;;;;;;16.70;1.00;;;;;;5054387;28;19909;-83
2022/09/01 05:28:52;;;;;;;;;;;16.80;1.00;;;;;;5054462;28;19909;-83
2022/09/01 05:31:18;;;;;;;;;;;16.80;1.00;;;;;;5054517;28;19915;-82
2022/09/01 05:33:49;;;;;;;;;;;16.80;1.00;;;;;;5054467;28;19917;-83
2022/09/01 05:36:16;;;;;;;;;;;16.90;1.00;;;;;;5054307;28;20518;-83
2022/09/01 05:38:43;;;;;;;;;;;17.00;1.00;;;;;;5054426;28;20409;-82
2022/09/01 05:41:13;;;;;;;;;;;17.00;1.00;;;;;;5054239;28;19909;-82
2022/09/01 05:43:50;;;;;;;;;;;17.10;1.00;;;;;;5054273;28;19909;-82
2022/09/01 05:46:19;;;;;;;;;;;17.10;1.00;;;;;;5053930;28;19908;-83
2022/09/01 05:48:48;;;;;;;;;;;17.20;1.00;;;;;;5054083;28;19908;-82
2022/09/01 05:51:16;;;;;;;;;;;17.20;1.00;;;;;;5054058;28;20270;-82
2022/09/01 05:53:42;;;;;;;;;;;17.20;1.00;;;;;;5054290;28;20296;-83
2022/09/01 05:56:09;;;;;;;;;;;17.30;1.00;;;;;;5056456;28;19909;-82
2022/09/01 05:58:35;;;;;;;;;;;17.30;1.00;;;;;;5055309;28;19915;-82
2022/09/01 06:01:01;;;;;;;;;;;17.30;1.00;;;;;;5054769;28;19917;-82
2022/09/01 06:03:27;;;;;;;;;;;17.30;1.00;;;;;;5054986;28;19916;-82
2022/09/01 06:06:00;;;;;;;;;;;17.40;1.00;;;;;;5055964;28;20280;-82
2022/09/01 06:08:27;;;;;;;;;;;17.50;1.00;;;;;;5054430;28;19909;-83
2022/09/01 06:10:53;;;;;;;;;;;17.60;1.00;;;;;;5055366;28;20416;-82
2022/09/01 06:13:20;;;;;;;;;;;17.60;1.00;;;;;;5054813;28;20020;-82
2022/09/01 06:15:50;;;;;;;;;;;17.70;1.00;;;;;;5054598;28;20007;-82
2022/09/01 06:18:18;;;;;;;;;;;17.70;1.00;;;;;;5055448;28;19962;-82
2022/09/01 06:20:44;;;;;;;;;;;17.80;1.00;;;;;;5056145;28;19913;-82
2022/09/01 06:23:14;;;;;;;;;;;18.00;1.00;;;;;;5054215;28;19916;-82
2022/09/01 06:25:45;;;;;;;;;;;18.10;1.00;;;;;;5054832;28;19909;-82
2022/09/01 06:28:15;;;;;;;;;;;18.20;1.00;;;;;;5054644;28;20391;-83
2022/09/01 06:30:41;;;;;;;;;;;18.30;1.00;;;;;;5054600;28;19908;-84
2022/09/01 06:33:10;;;;;;;;;;;18.40;1.00;;;;;;5054505;28;19921;-82
2022/09/01 06:35:37;;;;;;;;;;;18.50;1.00;;;;;;5054916;28;19915;-83
2022/09/01 06:38:05;;;;;;;;;;;18.60;1.00;;;;;;5054934;28;20010;-82
2022/09/01 06:40:32;;;;;;;;;;;18.70;1.00;;;;;;5055103;28;19909;-82
2022/09/01 06:43:01;;;;;;;;;;;18.80;1.00;;;;;;5055874;28;19915;-83
2022/09/01 06:45:26;;;;;;;;;;;18.90;1.00;;;;;;5055714;28;19916;-83
2022/09/01 06:47:52;;;;;;;;;;;19.10;1.00;;;;;;5055238;28;19909;-83
2022/09/01 06:50:20;;;;;;;;;;;19.20;1.00;;;;;;5055159;28;19909;-82
2022/09/01 06:52:48;;;;;;;;;;;19.30;1.00;;;;;;5054762;28;20335;-83
2022/09/01 06:55:14;;;;;;;;;;;19.40;1.00;;;;;;5054509;28;19936;-83
2022/09/01 06:57:41;;;;;;;;;;;19.60;99.90;;;;;;5055086;28;19909;-83
2022/09/01 07:00:19;;;;;;;;;;;19.70;99.90;;;;;;5054667;28;19915;-83
2022/09/01 07:02:46;;;;;;;;;;;19.80;99.90;;;;;;5055876;28;19970;-83
2022/09/01 07:05:16;;;;;;;;;;;19.90;1.00;;;;;;5055610;28;20364;-83
2022/09/01 07:07:45;;;;;;;;;;;20.00;1.00;;;;;;5055001;28;19909;-82
2022/09/01 07:10:13;;;;;;;;;;;20.20;99.90;;;;;;5054265;28;19994;-82
2022/09/01 07:12:42;;;;;;;;;;;20.30;1.00;;;;;;5055575;28;19920;-82
2022/09/01 07:15:08;;;;;;;;;;;20.40;1.00;;;;;;5054905;28;19909;-83
2022/09/01 07:17:33;;;;;;;;;;;20.60;1.00;;;;;;5055218;28;19912;-82
2022/09/01 07:19:59;;;;;;;;;;;20.60;99.90;;;;;;5055795;28;19967;-83
2022/09/01 07:22:24;;;;;;;;;;;20.70;99.90;;;;;;5055951;28;19908;-83
2022/09/01 07:24:53;;;;;;;;;;;20.90;1.00;;;;;;5055490;28;19916;-83
2022/09/01 07:27:19;;;;;;;;;;;20.90;99.90;;;;;;5055318;28;20007;-83
2022/09/01 07:29:45;;;;;;;;;;;21.00;1.00;;;;;;5055318;28;19991;-82
2022/09/01 07:32:34;;;;;;;;;;;21.20;99.90;;;;;;5076086;28;20022;-87
2022/09/01 07:35:01;;;;;;;;;;;21.30;99.90;;;;;;5072230;28;19919;-87
2022/09/01 07:41:11;;;;;;;;;;;21.50;99.90;;;;;;5008676;28;19994;-85
2022/09/01 07:43:40;;;;;;;;;;;21.70;99.90;;;;;;5081815;28;20078;-86
2022/09/01 07:46:06;;;;;;;;;;;21.70;99.90;;;;;;5070286;28;19956;-86
2022/09/01 07:48:32;;;;;;;;;;;21.80;99.90;;;;;;5062283;28;19916;-86
2022/09/01 07:50:57;;;;;;;;;;;21.90;99.90;;;;;;5068106;28;19951;-86
2022/09/01 07:53:25;;;;;;;;;;;21.90;99.90;;;;;;5069811;28;19986;-86
2022/09/01 07:55:52;;;;;;;;;;;21.90;99.90;;;;;;5067800;28;19976;-86
2022/09/01 07:58:19;;;;;;;;;;;22.00;99.90;;;;;;5063122;28;19920;-86
2022/09/01 08:00:48;;;;;;;;;;;22.10;99.90;;;;;;5064703;28;19923;-85
2022/09/01 08:03:15;;;;;;;;;;;22.20;99.90;;;;;;5069458;28;19931;-86
2022/09/01 08:05:56;;;;;;;;;;;22.30;99.90;;;;;;5071409;28;19908;-88
2022/09/01 08:08:22;;;;;;;;;;;22.40;99.90;;;;;;5065009;28;19912;-86
2022/09/01 08:10:48;;;;;;;;;;;22.50;99.90;;;;;;5064821;28;20398;-86
2022/09/01 08:13:14;;;;;;;;;;;22.50;99.90;;;;;;5065009;28;19913;-84
2022/09/01 08:15:39;;;;;;;;;;;22.60;99.90;;;;;;5062830;28;20368;-85
2022/09/01 08:18:05;;;;;;;;;;;22.70;99.90;;;;;;5062465;28;19919;-86
2022/09/01 08:20:33;;;;;;;;;;;22.70;99.90;;;;;;5075531;28;19909;-86
2022/09/01 08:22:59;;;;;;;;;;;22.80;99.90;;;;;;5081930;28;19952;-83
2022/09/01 08:25:25;;;;;;;;;;;22.90;99.90;;;;;;5072801;28;19915;-86
2022/09/01 08:27:50;;;;;;;;;;;23.00;99.90;;;;;;5072697;28;19999;-83
2022/09/01 08:30:16;;;;;;;;;;;23.20;99.90;;;;;;5076814;28;19958;-84
2022/09/01 08:32:41;;;;;;;;;;;23.20;99.90;;;;;;5074747;28;19924;-84
2022/09/01 08:35:08;;;;;;;;;;;23.30;99.90;;;;;;5071897;28;19912;-83
2022/09/01 08:37:34;;;;;;;;;;;23.40;99.90;;;;;;5071982;28;19916;-84
2022/09/01 08:39:59;;;;;;;;;;;23.40;99.90;;;;;;5071442;28;20050;-83
2022/09/01 08:42:25;;;;;;;;;;;23.60;99.90;;;;;;5071381;28;20505;-83
2022/09/01 08:44:59;;;;;;;;;;;23.70;99.90;;;;;;5071325;28;20486;-83
2022/09/01 08:47:24;;;;;;;;;;;23.80;99.90;;;;;;5071255;28;20003;-83
2022/09/01 08:49:50;;;;;;;;;;;24.00;99.90;;;;;;5071202;28;19952;-83
2022/09/01 08:52:15;;;;;;;;;;;24.30;99.90;;;;;;5071216;28;19919;-84
2022/09/01 08:54:48;;;;;;;;;;;25.60;99.90;;;;;;5072713;28;20431;-83
2022/09/01 08:57:16;;;;;;;;;;;27.50;97.60;;;;;;5071572;28;19958;-83
2022/09/01 08:59:42;;;;;;;;;;;29.50;90.90;;;;;;5071467;28;19958;-83
2022/09/01 09:02:16;;;;;;;;;;;31.20;73.90;;;;;;5071253;28;19916;-84
2022/09/01 09:04:57;;;;;;;;;;;32.80;65.30;;;;;;5072598;28;19913;-84
2022/09/01 09:07:22;;;;;;;;;;;34.30;58.20;;;;;;5070865;28;19915;-84
2022/09/01 09:09:51;;;;;;;;;;;35.50;53.60;;;;;;5072279;28;20427;-84
2022/09/01 09:12:29;;;;;;;;;;;36.20;48.70;;;;;;5072466;28;19964;-85
2022/09/01 09:15:13;;;;;;;;;;;37.00;47.30;;;;;;5072197;28;19962;-84
2022/09/01 09:17:42;;;;;;;;;;;38.10;45.40;;;;;;5071014;28;19915;-85
2022/09/01 09:20:09;;;;;;;;;;;39.20;42.30;;;;;;5070965;28;19966;-84
2022/09/01 09:22:34;;;;;;;;;;;40.00;40.30;;;;;;5071064;28;19976;-84
2022/09/01 09:25:14;;;;;;;;;;;39.90;37.10;;;;;;5071497;28;19955;-85
2022/09/01 09:27:41;;;;;;;;;;;37.90;37.60;;;;;;5070968;28;19912;-85
2022/09/01 09:30:06;;;;;;;;;;;37.30;38.40;;;;;;5070713;28;19919;-85
2022/09/01 09:32:42;;;;;;;;;;;38.30;38.30;;;;;;5071692;28;20010;-85
2022/09/01 09:35:22;;;;;;;;;;;39.50;37.00;;;;;;5070439;28;19966;-86
2022/09/01 09:37:48;;;;;;;;;;;40.60;35.40;;;;;;5070273;28;19913;-85
2022/09/01 09:40:16;;;;;;;;;;;41.30;34.80;;;;;;5070465;28;20376;-85
2022/09/01 09:42:54;;;;;;;;;;;41.40;33.40;;;;;;5073932;28;20330;-85
2022/09/01 09:45:23;;;;;;;;;;;41.30;32.40;;;;;;5074071;28;19909;-86
2022/09/01 09:47:49;;;;;;;;;;;40.60;31.20;;;;;;5067816;28;19909;-87
2022/09/01 09:50:17;;;;;;;;;;;39.90;30.00;;;;;;5061602;28;19926;-86
2022/09/01 09:52:45;;;;;;;;;;;39.10;30.20;;;;;;5054228;28;19996;-86
2022/09/01 09:55:23;;;;;;;;;;;38.10;30.30;;;;;;5054264;28;19983;-86
2022/09/01 09:57:49;;;;;;;;;;;37.20;32.00;;;;;;5053900;28;20292;-86
2022/09/01 10:00:20;;;;;;;;;;;36.70;33.60;;;;;;5054521;28;19909;-86
2022/09/01 10:02:52;;;;;;;;;;;35.80;34.10;;;;;;5053894;28;20015;-87
2022/09/01 10:05:25;;;;;;;;;;;35.00;34.80;;;;;;5055499;28;19913;-85
2022/09/01 10:07:51;;;;;;;;;;;34.20;35.20;;;;;;5055235;28;19909;-85
2022/09/01 10:10:36;;;;;;;;;;;33.00;36.50;;;;;;5054555;28;19919;-86
2022/09/01 10:13:02;;;;;;;;;;;31.90;37.70;;;;;;5055148;28;19920;-85
2022/09/01 10:15:29;;;;;;;;;;;31.00;38.00;;;;;;5054231;28;19909;-87
2022/09/01 10:17:57;;;;;;;;;;;30.50;38.80;;;;;;5055774;28;19913;-84
2022/09/01 10:20:24;;;;;;;;;;;30.10;40.00;;;;;;5055647;28;19919;-86
2022/09/01 10:22:50;;;;;;;;;;;29.80;40.90;;;;;;5057075;28;19909;-86
2022/09/01 10:25:18;;;;;;;;;;;29.70;43.40;;;;;;5054492;28;19955;-86
2022/09/01 10:27:46;;;;;;;;;;;29.70;41.50;;;;;;5056594;28;19916;-85
2022/09/01 10:30:12;;;;;;;;;;;29.70;41.70;;;;;;5054960;28;19916;-87
2022/09/01 10:32:41;;;;;;;;;;;29.40;41.90;;;;;;5056060;28;19913;-85
2022/09/01 10:35:09;;;;;;;;;;;29.40;42.40;;;;;;5054686;28;19909;-85
2022/09/01 10:37:35;;;;;;;;;;;29.40;42.30;;;;;;5055265;28;19987;-86
2022/09/01 10:40:20;;;;;;;;;;;29.50;41.60;;;;;;5061071;28;20407;-86
2022/09/01 10:42:54;;;;;;;;;;;29.50;42.30;;;;;;5057184;28;19915;-85
2022/09/01 10:45:37;;;;;;;;;;;29.90;40.80;;;;;;5055660;28;19916;-85
2022/09/01 10:48:22;;;;;;;;;;;30.70;40.50;;;;;;5070126;28;20392;-85
2022/09/01 10:50:52;;;;;;;;;;;30.80;39.10;;;;;;5075807;28;19952;-83
2022/09/01 10:53:32;;;;;;;;;;;30.50;39.60;;;;;;5076271;28;19924;-84
2022/09/01 10:56:01;;;;;;;;;;;30.10;40.50;;;;;;5074141;28;19909;-84
2022/09/01 10:58:47;;;;;;;;;;;29.90;41.00;;;;;;5074245;28;20291;-85
2022/09/01 11:01:13;;;;;;;;;;;29.70;41.50;;;;;;5074834;28;19920;-85
2022/09/01 11:03:44;;;;;;;;;;;29.40;41.20;;;;;;5074347;28;19908;-84
2022/09/01 11:06:30;;;;;;;;;;;29.20;39.80;;;;;;5073768;28;20593;-85
2022/09/01 11:08:59;;;;;;;;;;;28.90;40.50;;;;;;5074218;28;19908;-85
2022/09/01 11:11:46;;;;;;;;;;;28.50;41.90;;;;;;5074911;28;19909;-83
2022/09/01 11:14:20;;;;;;;;;;;28.20;42.60;;;;;;5073458;28;19912;-85
2022/09/01 11:17:09;;;;;;;;;;;27.80;43.70;;;;;;5072345;28;19957;-84
2022/09/01 11:19:42;;;;;;;;;;;27.60;43.00;;;;;;5062055;28;19908;-85
2022/09/01 11:22:16;;;;;;;;;;;27.50;43.20;;;;;;5054920;28;19909;-84
2022/09/01 11:24:43;;;;;;;;;;;27.60;42.40;;;;;;5056186;28;19934;-84
2022/09/01 11:27:09;;;;;;;;;;;27.80;42.80;;;;;;5056915;28;19909;-85
2022/09/01 11:29:54;;;;;;;;;;;27.90;44.80;;;;;;5053751;28;19915;-84
2022/09/01 11:32:22;;;;;;;;;;;27.90;45.80;;;;;;5053385;28;20015;-86
2022/09/01 11:34:49;;;;;;;;;;;28.10;45.30;;;;;;5053390;28;19924;-85
2022/09/01 11:37:15;;;;;;;;;;;28.20;44.50;;;;;;5051444;28;20253;-84
2022/09/01 11:39:55;;;;;;;;;;;28.30;46.00;;;;;;5052129;28;20320;-84
2022/09/01 11:42:24;;;;;;;;;;;28.50;46.30;;;;;;5055318;28;19909;-87
2022/09/01 11:44:50;;;;;;;;;;;28.70;45.90;;;;;;5052661;28;20357;-88
2022/09/01 11:47:25;;;;;;;;;;;28.70;44.40;;;;;;5052437;28;19909;-86
2022/09/01 11:49:50;;;;;;;;;;;28.70;45.30;;;;;;5053965;28;19919;-88
2022/09/01 11:52:17;;;;;;;;;;;28.70;43.30;;;;;;5052725;28;20389;-85
2022/09/01 11:54:45;;;;;;;;;;;28.60;44.10;;;;;;5053067;28;19959;-87
2022/09/01 11:57:18;;;;;;;;;;;28.60;45.30;;;;;;5052579;28;19932;-85
2022/09/01 11:59:44;;;;;;;;;;;28.60;44.50;;;;;;5053722;28;20368;-84
2022/09/01 12:02:16;;;;;;;;;;;28.70;45.50;;;;;;5052251;28;19963;-87
2022/09/01 12:04:41;;;;;;;;;;;28.70;44.70;;;;;;5052784;28;19919;-86
2022/09/01 12:07:10;;;;;;;;;;;28.50;45.20;;;;;;5051770;28;20011;-87
2022/09/01 12:09:46;;;;;;;;;;;28.20;46.40;;;;;;5070228;28;19919;-85
2022/09/01 12:12:30;;;;;;;;;;;28.10;45.70;;;;;;5072956;28;19912;-84
2022/09/01 12:14:57;;;;;;;;;;;28.10;46.30;;;;;;5051773;28;19909;-85
2022/09/01 12:17:22;;;;;;;;;;;28.30;45.60;;;;;;5051058;28;19909;-83
2022/09/01 12:19:47;;;;;;;;;;;28.40;44.70;;;;;;5053350;28;19915;-85
2022/09/01 12:22:15;;;;;;;;;;;28.50;45.20;;;;;;5052758;28;19909;-84
2022/09/01 12:24:43;;;;;;;;;;;28.30;44.20;;;;;;5052861;28;19972;-86
2022/09/01 12:27:09;;;;;;;;;;;28.10;46.10;;;;;;5053974;28;19931;-86
2022/09/01 12:29:36;;;;;;;;;;;28.20;45.20;;;;;;5064383;28;20363;-83
2022/09/01 12:32:02;;;;;;;;;;;28.30;45.00;;;;;;5071941;28;19909;-85
2022/09/01 12:34:36;;;;;;;;;;;28.50;45.70;;;;;;5071721;28;20325;-85
2022/09/01 12:37:06;;;;;;;;;;;28.60;45.20;;;;;;5074850;28;19909;-83
2022/09/01 12:39:39;;;;;;;;;;;28.80;46.40;;;;;;5073793;28;19908;-83
2022/09/01 12:42:07;;;;;;;;;;;29.10;46.40;;;;;;5073730;28;19908;-85
2022/09/01 12:44:41;;;;;;;;;;;29.50;46.40;;;;;;5076082;28;19908;-85
2022/09/01 12:47:08;;;;;;;;;;;29.70;45.00;;;;;;5076323;28;20000;-86
2022/09/01 12:49:34;;;;;;;;;;;29.80;45.20;;;;;;5072799;28;19913;-85
2022/09/01 12:52:11;;;;;;;;;;;29.70;44.40;;;;;;5074052;28;19909;-85
2022/09/01 12:54:37;;;;;;;;;;;29.60;44.50;;;;;;5073227;28;19912;-85
2022/09/01 12:57:03;;;;;;;;;;;29.40;44.30;;;;;;5074931;28;19958;-85
2022/09/01 12:59:28;;;;;;;;;;;29.20;44.10;;;;;;5075821;28;20003;-85
2022/09/01 13:01:54;;;;;;;;;;;29.00;44.80;;;;;;5083394;28;19920;-86
2022/09/01 13:04:20;;;;;;;;;;;28.80;44.60;;;;;;5076071;28;19915;-85
2022/09/01 13:06:45;;;;;;;;;;;28.50;45.80;;;;;;5074852;28;19909;-85
2022/09/01 13:09:11;;;;;;;;;;;28.30;46.80;;;;;;5073933;28;20562;-84
2022/09/01 13:11:37;;;;;;;;;;;28.10;46.50;;;;;;5056924;28;20371;-84
2022/09/01 13:14:02;;;;;;;;;;;28.10;47.60;;;;;;5052352;28;20012;-85
2022/09/01 13:16:28;;;;;;;;;;;28.20;46.60;;;;;;5056529;28;19909;-85
2022/09/01 13:18:53;;;;;;;;;;;28.20;47.50;;;;;;5058116;28;20299;-85
2022/09/01 13:21:19;;;;;;;;;;;28.10;46.60;;;;;;5060366;28;20434;-86
2022/09/01 13:23:45;;;;;;;;;;;28.10;47.30;;;;;;5061065;28;19912;-84
2022/09/01 13:26:11;;;;;;;;;;;28.20;46.50;;;;;;5081600;28;19908;-87
2022/09/01 13:28:36;;;;;;;;;;;28.30;46.30;;;;;;5079981;28;20006;-87
2022/09/01 13:31:06;;;;;;;;;;;28.40;46.40;;;;;;5076391;28;19908;-86
2022/09/01 13:33:33;;;;;;;;;;;28.50;47.40;;;;;;5067914;28;19964;-86
2022/09/01 13:35:58;;;;;;;;;;;28.60;47.10;;;;;;5079980;28;19908;-87
2022/09/01 13:38:24;;;;;;;;;;;28.50;44.80;;;;;;5079679;28;19991;-86
2022/09/01 13:40:50;;;;;;;;;;;28.50;46.50;;;;;;5077550;28;20602;-86
2022/09/01 13:43:18;;;;;;;;;;;28.70;47.60;;;;;;5066193;28;20051;-88
2022/09/01 13:45:43;;;;;;;;;;;29.10;47.10;;;;;;5078171;28;19912;-87
2022/09/01 13:48:09;;;;;;;;;;;29.30;47.70;;;;;;5078628;28;19909;-87
2022/09/01 13:50:37;;;;;;;;;;;29.30;47.70;;;;;;5081620;28;19909;-87
2022/09/01 13:53:03;;;;;;;;;;;29.20;45.30;;;;;;5075499;28;20403;-86
2022/09/01 13:55:30;;;;;;;;;;;29.10;45.20;;;;;;5075377;28;19931;-87
2022/09/01 13:57:57;;;;;;;;;;;29.10;46.50;;;;;;5076370;28;19913;-87
2022/09/01 14:00:24;;;;;;;;;;;29.20;46.40;;;;;;5076091;28;19954;-87
2022/09/01 14:02:52;;;;;;;;;;;29.20;45.60;;;;;;5076100;28;20007;-86
2022/09/01 14:05:18;;;;;;;;;;;29.30;44.60;;;;;;5076096;28;19908;-86
2022/09/01 14:07:44;;;;;;;;;;;29.30;45.10;;;;;;5075801;28;19909;-87
2022/09/01 14:10:10;;;;;;;;;;;29.20;44.40;;;;;;5073752;28;19955;-86
2022/09/01 14:12:36;;;;;;;;;;;29.20;45.10;;;;;;5076380;28;19920;-85
2022/09/01 14:15:02;;;;;;;;;;;29.40;45.00;;;;;;5078873;28;19908;-87
2022/09/01 14:17:27;;;;;;;;;;;29.50;44.80;;;;;;5075834;28;19914;-86
2022/09/01 14:19:54;;;;;;;;;;;29.60;46.00;;;;;;5078404;28;19908;-86
2022/09/01 14:22:19;;;;;;;;;;;29.80;44.10;;;;;;5078843;28;19939;-87
2022/09/01 14:24:46;;;;;;;;;;;30.00;46.40;;;;;;5082019;28;20525;-86
2022/09/01 14:27:11;;;;;;;;;;;30.10;44.90;;;;;;5074666;28;19908;-86
2022/09/01 14:29:37;;;;;;;;;;;30.20;45.10;;;;;;5075781;28;20283;-87
2022/09/01 14:32:02;;;;;;;;;;;30.30;43.80;;;;;;5077060;28;19931;-86
2022/09/01 14:34:29;;;;;;;;;;;30.90;43.90;;;;;;5085703;28;20264;-87
2022/09/01 14:36:56;;;;;;;;;;;32.30;43.00;;;;;;5081817;28;19947;-87
2022/09/01 14:39:22;;;;;;;;;;;32.70;43.20;;;;;;5085848;28;20288;-87